Time;durP1;ratioP1;P1;durP2;ratioP2;P2;SDS_P1;SDS_P2;PMS_P1;PMS_P2;Temp;Humidity;BMP_temperature;BMP_pressure;BME280_temperature;BME280_humidity;BME280_pressure;Samples;Min_cycle;Max_cycle;Signal;HPM_P1;HPM_P2
2022/03/12 02:15:28;;;;;;;14.75;8.15;;;;;;;;;;7359650;19;20039;-88
2022/03/12 08:17:06;;;;;;;15.25;8.18;;;;;;;;;;7369574;19;20021;-91
2022/03/12 08:19:39;;;;;;;18.20;9.52;;;;;;;;;;7372624;19;20031;-92
2022/03/12 08:25:45;;;;;;;16.23;9.05;;;;;;;;;;7373329;19;20006;-94
2022/03/12 08:31:10;;;;;;;17.38;9.65;;;;;;;;;;7379727;19;20038;-90
2022/03/12 08:33:56;;;;;;;;;;;;;;;;;;;;;
2022/03/12 08:36:25;;;;;;;18.25;8.82;;;;;;;;;;7392293;19;20072;-92
2022/03/12 08:38:58;;;;;;;18.63;9.18;;;;;;;;;;7383483;19;20026;-91
2022/03/12 08:41:27;;;;;;;16.60;8.15;;;;;;;;;;7370738;19;20015;-91
2022/03/12 08:47:15;;;;;;;13.35;7.85;;;;;;;;;;7378935;19;20645;-93
2022/03/12 08:49:44;;;;;;;16.05;8.30;;;;;;;;;;7376331;19;20031;-93
2022/03/12 08:55:23;;;;;;;;;;;;;;;;;;;;;
2022/03/12 09:01:12;;;;;;;24.70;8.55;;;;;;;;;;7381831;19;20014;-94
2022/03/12 09:04:05;;;;;;;;;;;;;;;;;;;;;
2022/03/12 09:07:10;;;;;;;17.23;8.57;;;;;;;;;;7388597;19;20046;-92
2022/03/12 09:10:13;;;;;;;14.68;8.85;;;;;;;;;;7376844;19;20027;-92
2022/03/12 09:13:35;;;;;;;16.23;8.50;;;;;;;;;;7371621;19;20093;-91
2022/03/12 09:19:35;;;;;;;15.17;7.67;;;;;;;;;;7373945;19;20403;-91
2022/03/12 09:22:03;;;;;;;16.98;8.23;;;;;;;;;;7379770;19;20430;-92
2022/03/12 09:24:51;;;;;;;;;;;;;;;;;;;;;
2022/03/12 09:27:18;;;;;;;14.52;7.88;;;;;;;;;;7378565;19;20449;-91
2022/03/12 09:29:58;;;;;;;15.80;8.10;;;;;;;;;;7383176;19;20021;-93
2022/03/12 09:32:24;;;;;;;16.42;8.23;;;;;;;;;;7380558;19;20018;-93
2022/03/12 09:34:55;;;;;;;15.70;8.45;;;;;;;;;;7387629;19;20003;-93
2022/03/12 09:37:53;;;;;;;;;;;;;;;;;;;;;
2022/03/12 09:40:30;;;;;;;14.43;7.85;;;;;;;;;;7384602;19;20016;-93
2022/03/12 09:43:21;;;;;;;17.17;7.53;;;;;;;;;;7381825;19;20006;-93
2022/03/12 09:45:59;;;;;;;12.95;6.55;;;;;;;;;;7376627;19;20014;-92
2022/03/12 09:48:31;;;;;;;12.80;6.85;;;;;;;;;;7371438;19;20072;-92
2022/03/12 09:54:10;;;;;;;12.80;6.72;;;;;;;;;;7368660;19;20002;-94
2022/03/12 09:56:48;;;;;;;;;;;;;;;;;;;;;
2022/03/12 10:02:13;;;;;;;13.38;6.95;;;;;;;;;;7374727;19;20445;-92
2022/03/12 10:05:04;;;;;;;15.00;7.03;;;;;;;;;;7363544;19;20556;-91
2022/03/12 10:07:45;;;;;;;13.27;7.43;;;;;;;;;;7358812;19;20014;-93
2022/03/12 10:13:15;;;;;;;15.43;6.70;;;;;;;;;;7367396;19;20009;-93
2022/03/12 10:22:14;;;;;;;12.40;6.57;;;;;;;;;;7366208;19;20001;-93
2022/03/12 10:24:40;;;;;;;11.50;6.40;;;;;;;;;;7364713;19;20310;-93
2022/03/12 10:31:15;;;;;;;;;;;;;;;;;;;;;
2022/03/12 10:43:01;;;;;;;10.27;5.63;;;;;;;;;;7366607;19;20002;-92
2022/03/12 10:57:49;;;;;;;11.50;6.25;;;;;;;;;;7372605;19;20723;-91
2022/03/12 11:03:15;;;;;;;15.77;5.95;;;;;;;;;;7373468;19;19998;-91
2022/03/12 11:11:41;;;;;;;10.90;5.90;;;;;;;;;;7359551;19;20451;-77
2022/03/12 11:14:07;;;;;;;11.63;5.70;;;;;;;;;;7359412;19;20012;-77
2022/03/12 11:16:33;;;;;;;11.90;5.57;;;;;;;;;;7345662;19;20750;-77
2022/03/12 11:19:10;;;;;;;11.00;5.82;;;;;;;;;;7364449;19;20003;-77
2022/03/12 11:21:37;;;;;;;13.02;6.65;;;;;;;;;;7353176;19;20014;-77
2022/03/12 11:24:06;;;;;;;12.82;7.15;;;;;;;;;;7353768;19;20018;-77
2022/03/12 11:26:43;;;;;;;14.93;6.90;;;;;;;;;;7361734;19;20536;-77
2022/03/12 11:29:08;;;;;;;16.50;7.60;;;;;;;;;;7350904;19;20577;-77
2022/03/12 11:31:52;;;;;;;15.63;7.03;;;;;;;;;;7361726;19;20010;-77
2022/03/12 11:34:23;;;;;;;13.73;8.05;;;;;;;;;;7356227;19;20002;-79
2022/03/12 11:36:55;;;;;;;16.10;7.30;;;;;;;;;;7362105;19;20492;-77
2022/03/12 11:39:26;;;;;;;14.70;7.28;;;;;;;;;;7367424;19;20063;-77
2022/03/12 11:42:10;;;;;;;16.10;8.02;;;;;;;;;;7362089;19;20053;-77
2022/03/12 11:44:36;;;;;;;15.27;7.68;;;;;;;;;;7361780;19;20010;-77
2022/03/12 11:47:02;;;;;;;15.57;7.75;;;;;;;;;;7370727;19;20001;-77
2022/03/12 11:49:28;;;;;;;14.25;8.18;;;;;;;;;;7362638;19;20011;-77
2022/03/12 11:51:53;;;;;;;14.23;8.33;;;;;;;;;;7349949;19;20021;-78
2022/03/12 11:54:19;;;;;;;13.95;7.97;;;;;;;;;;7342391;19;21227;-78
2022/03/12 11:56:44;;;;;;;15.82;8.48;;;;;;;;;;7348338;19;20003;-78
2022/03/12 11:59:10;;;;;;;18.52;8.68;;;;;;;;;;7354414;19;19991;-77
2022/03/12 12:01:37;;;;;;;13.98;7.78;;;;;;;;;;7363834;19;20022;-78
2022/03/12 12:04:03;;;;;;;14.63;7.78;;;;;;;;;;7357161;19;19998;-78
2022/03/12 12:06:28;;;;;;;13.93;7.28;;;;;;;;;;7345412;19;20564;-77
2022/03/12 12:08:54;;;;;;;16.40;8.45;;;;;;;;;;7361877;19;19999;-76
